createdAt,value
2022-10-05T00:01:29.887Z,8.95
2022-10-05T00:04:09.171Z,8.95
2022-10-05T00:06:37.878Z,8.98
2022-10-05T00:09:13.050Z,8.98
2022-10-05T00:11:41.818Z,9.00
2022-10-05T00:14:16.818Z,9.00
2022-10-05T00:16:46.017Z,9.02
2022-10-05T00:19:32.954Z,9.05
2022-10-05T00:22:10.736Z,9.07
2022-10-05T00:24:39.376Z,9.08
2022-10-05T00:27:16.685Z,9.09
2022-10-05T00:29:45.781Z,9.11
2022-10-05T00:32:14.622Z,9.13
2022-10-05T00:34:44.396Z,9.15
2022-10-05T00:37:14.926Z,9.16
2022-10-05T00:39:43.971Z,9.18
2022-10-05T00:42:29.345Z,9.19
2022-10-05T00:45:02.556Z,9.21
2022-10-05T00:47:41.326Z,9.23
2022-10-05T00:50:25.780Z,9.24
2022-10-05T00:53:01.324Z,9.25
2022-10-05T00:55:42.164Z,9.28
2022-10-05T00:58:23.616Z,9.29
2022-10-05T01:01:02.087Z,9.30
2022-10-05T01:03:39.796Z,9.31
2022-10-05T01:06:18.557Z,9.30
2022-10-05T01:08:58.001Z,9.32
2022-10-05T01:11:30.580Z,9.34
2022-10-05T01:14:08.310Z,9.34
2022-10-05T01:16:47.927Z,9.37
2022-10-05T01:19:36.187Z,9.38
2022-10-05T01:22:15.548Z,9.39
2022-10-05T01:25:05.274Z,9.41
2022-10-05T01:27:54.908Z,9.41
2022-10-05T01:30:24.249Z,9.41
2022-10-05T01:33:01.926Z,9.41
2022-10-05T01:35:41.564Z,9.42
2022-10-05T01:38:24.238Z,9.42
2022-10-05T01:41:02.047Z,9.43
2022-10-05T01:43:40.604Z,9.43
2022-10-05T01:46:23.791Z,9.43
2022-10-05T01:49:06.411Z,9.42
2022-10-05T01:51:43.479Z,9.40
2022-10-05T01:54:26.248Z,9.39
2022-10-05T01:57:05.274Z,9.40
2022-10-05T01:59:48.362Z,9.41
2022-10-05T02:02:19.281Z,9.39
2022-10-05T02:05:06.470Z,9.39
2022-10-05T02:07:40.262Z,9.38
2022-10-05T02:10:18.774Z,9.36
2022-10-05T02:12:52.426Z,9.36
2022-10-05T02:15:27.164Z,9.35
2022-10-05T02:18:10.699Z,9.34
2022-10-05T02:20:42.905Z,9.31
2022-10-05T02:23:16.676Z,9.30
2022-10-05T02:25:49.636Z,9.29
2022-10-05T02:28:23.610Z,9.29
2022-10-05T02:30:56.764Z,9.29
2022-10-05T02:33:29.804Z,9.28
2022-10-05T02:36:08.127Z,9.27
2022-10-05T02:38:47.884Z,9.28
2022-10-05T02:41:26.258Z,9.28
2022-10-05T02:44:04.183Z,9.28
2022-10-05T02:46:41.131Z,9.28
2022-10-05T02:49:21.610Z,9.29
2022-10-05T02:51:58.005Z,9.28
2022-10-05T02:54:42.588Z,9.27
2022-10-05T02:57:20.322Z,9.24
2022-10-05T02:59:56.938Z,9.23
2022-10-05T03:02:31.924Z,9.21
2022-10-05T03:05:12.764Z,9.19
2022-10-05T03:07:48.797Z,9.15
2022-10-05T03:10:25.573Z,9.13
2022-10-05T03:13:02.506Z,9.13
2022-10-05T03:15:54.827Z,9.12
2022-10-05T03:18:35.686Z,9.10
2022-10-05T03:21:14.439Z,9.09
2022-10-05T03:24:00.597Z,9.09
2022-10-05T03:26:39.380Z,9.09
2022-10-05T03:29:20.974Z,9.10
2022-10-05T03:31:58.231Z,9.11
2022-10-05T03:34:33.586Z,9.12
2022-10-05T03:37:10.557Z,9.14
2022-10-05T03:39:45.282Z,9.14
2022-10-05T03:42:25.154Z,9.13
2022-10-05T03:45:02.858Z,9.13
2022-10-05T03:47:39.788Z,9.13
2022-10-05T03:50:30.635Z,9.14
2022-10-05T03:53:05.617Z,9.14
2022-10-05T03:55:41.427Z,9.15
2022-10-05T03:58:17.063Z,9.16
2022-10-05T04:00:52.922Z,9.17
2022-10-05T04:03:25.976Z,9.17
2022-10-05T04:05:59.782Z,9.17
2022-10-05T04:08:38.662Z,9.18
2022-10-05T04:11:12.706Z,9.20
2022-10-05T04:13:46.629Z,9.21
2022-10-05T04:16:21.200Z,9.22
2022-10-05T04:18:56.386Z,9.21
2022-10-05T04:21:32.055Z,9.21
2022-10-05T04:24:04.943Z,9.20
2022-10-05T04:26:41.349Z,9.19
2022-10-05T04:29:17.667Z,9.16
2022-10-05T04:32:03.705Z,9.14
2022-10-05T04:34:44.632Z,9.09
2022-10-05T04:37:19.753Z,9.06
2022-10-05T04:39:58.379Z,9.02
2022-10-05T04:42:36.136Z,9.02
2022-10-05T04:45:14.476Z,9.00
2022-10-05T04:48:03.578Z,8.98
2022-10-05T04:50:47.873Z,8.96
2022-10-05T04:53:27.764Z,8.95
2022-10-05T04:56:02.264Z,8.94
2022-10-05T04:58:43.833Z,8.94
2022-10-05T05:01:28.418Z,8.94
2022-10-05T05:04:13.669Z,8.93
2022-10-05T05:06:54.658Z,8.94
2022-10-05T05:09:42.750Z,8.96
2022-10-05T05:12:25.152Z,8.99
2022-10-05T05:15:08.047Z,9.01
2022-10-05T05:17:55.809Z,9.04
2022-10-05T05:20:35.810Z,9.09
2022-10-05T05:23:12.618Z,9.13
2022-10-05T05:25:57.023Z,9.16
2022-10-05T05:28:35.866Z,9.22
2022-10-05T05:31:15.436Z,9.27
2022-10-05T05:33:53.460Z,9.31
2022-10-05T05:36:55.540Z,9.33
2022-10-05T05:39:33.704Z,9.37
2022-10-05T05:42:20.026Z,9.42
2022-10-05T05:44:53.360Z,9.44
2022-10-05T05:47:29.151Z,9.46
2022-10-05T05:50:12.756Z,9.47
2022-10-05T05:52:49.310Z,9.49
2022-10-05T05:55:29.060Z,9.51
2022-10-05T05:58:04.035Z,9.55
2022-10-05T06:00:38.946Z,9.60
2022-10-05T06:03:19.259Z,9.65
2022-10-05T06:05:52.645Z,9.70
2022-10-05T06:08:29.758Z,9.74
2022-10-05T06:11:09.981Z,9.79
2022-10-05T06:13:40.666Z,9.84
2022-10-05T06:16:18.160Z,9.90
2022-10-05T06:18:53.442Z,9.98
2022-10-05T06:21:30.242Z,10.07
2022-10-05T06:24:04.791Z,10.15
2022-10-05T06:27:19.967Z,10.21
2022-10-05T06:30:03.378Z,10.28
2022-10-05T06:32:36.745Z,10.36
2022-10-05T06:35:15.612Z,10.44
2022-10-05T06:38:02.938Z,10.53
2022-10-05T06:40:47.538Z,10.66
2022-10-05T06:43:34.926Z,10.74
2022-10-05T06:46:30.067Z,10.83
2022-10-05T06:49:23.240Z,10.90
2022-10-05T06:52:25.269Z,10.98
2022-10-05T06:55:13.994Z,11.01
2022-10-05T06:57:55.373Z,11.07
2022-10-05T07:00:28.793Z,11.09
2022-10-05T07:03:05.045Z,11.12
2022-10-05T07:06:06.412Z,11.14
2022-10-05T07:08:47.323Z,11.16
2022-10-05T07:11:27.134Z,11.21
2022-10-05T07:14:11.719Z,11.26
2022-10-05T07:16:53.963Z,11.30
2022-10-05T07:19:36.738Z,11.37
2022-10-05T07:22:29.319Z,11.47
2022-10-05T07:25:07.836Z,11.60
2022-10-05T07:27:43.622Z,11.72
2022-10-05T07:30:14.910Z,11.94
2022-10-05T07:32:56.444Z,12.22
2022-10-05T07:35:53.513Z,12.51
2022-10-05T07:38:31.478Z,12.86
2022-10-05T07:41:06.847Z,13.09
2022-10-05T07:46:51.562Z,13.23
2022-10-05T07:49:32.046Z,13.24
2022-10-05T07:52:05.314Z,13.19
2022-10-05T07:54:45.084Z,13.13
2022-10-05T07:57:21.000Z,13.10
2022-10-05T07:59:56.581Z,13.11
2022-10-05T08:02:32.076Z,13.16
2022-10-05T08:05:05.472Z,13.26
2022-10-05T08:07:36.386Z,13.58
2022-10-05T08:10:19.618Z,13.91
2022-10-05T08:13:06.278Z,14.03
2022-10-05T08:15:40.313Z,14.03
2022-10-05T08:18:21.197Z,14.06
2022-10-05T08:20:54.634Z,14.22
2022-10-05T08:23:28.014Z,14.71
2022-10-05T08:26:08.753Z,15.23
2022-10-05T08:28:42.049Z,15.53
2022-10-05T08:31:18.942Z,15.55
2022-10-05T08:33:51.392Z,15.50
2022-10-05T08:36:28.396Z,15.44
2022-10-05T08:38:58.630Z,15.40
2022-10-05T08:42:01.523Z,15.41
2022-10-05T08:45:03.185Z,15.45
2022-10-05T08:47:59.601Z,15.50
2022-10-05T08:50:43.634Z,15.58
2022-10-05T08:53:41.723Z,15.69
2022-10-05T08:56:30.139Z,15.77
2022-10-05T08:59:22.391Z,15.82
2022-10-05T09:02:17.025Z,15.87
2022-10-05T09:05:10.876Z,15.96
2022-10-05T09:08:02.036Z,16.04
2022-10-05T09:10:58.809Z,16.11
2022-10-05T09:13:38.279Z,16.20
2022-10-05T09:16:35.603Z,16.35
2022-10-05T09:19:40.222Z,16.54
2022-10-05T09:22:15.763Z,16.69
2022-10-05T09:24:55.091Z,16.76
2022-10-05T09:27:37.578Z,16.79
2022-10-05T09:30:20.054Z,16.84
2022-10-05T09:33:38.455Z,16.87
2022-10-05T09:36:38.557Z,16.79
2022-10-05T09:39:39.577Z,16.75
2022-10-05T09:42:27.733Z,16.72
2022-10-05T09:45:31.379Z,16.81
2022-10-05T09:48:41.342Z,16.98
2022-10-05T09:51:42.700Z,17.07
2022-10-05T09:54:46.985Z,16.99
2022-10-05T09:57:41.774Z,17.06
2022-10-05T10:00:21.243Z,17.24
2022-10-05T10:03:24.296Z,17.39
2022-10-05T10:06:14.381Z,17.43
2022-10-05T10:09:03.772Z,17.43
2022-10-05T10:11:44.787Z,17.54
2022-10-05T10:14:55.764Z,17.71
2022-10-05T10:17:47.167Z,18.06
2022-10-05T10:20:30.812Z,18.42
2022-10-05T10:23:14.715Z,18.71
2022-10-05T10:26:02.356Z,19.02
2022-10-05T10:28:55.875Z,19.16
2022-10-05T10:31:53.491Z,19.35
2022-10-05T10:34:42.089Z,19.45
2022-10-05T10:37:36.606Z,19.27
2022-10-05T10:40:20.783Z,18.99
2022-10-05T10:43:08.897Z,18.84
2022-10-05T10:45:50.512Z,18.94
2022-10-05T10:48:56.844Z,18.99
2022-10-05T10:51:48.957Z,19.02
2022-10-05T10:55:03.762Z,18.90
2022-10-05T10:57:49.451Z,18.77
2022-10-05T11:00:45.591Z,18.74
2022-10-05T11:03:48.474Z,18.76
2022-10-05T11:06:39.611Z,18.86
2022-10-05T11:09:34.546Z,18.86
2022-10-05T11:12:34.746Z,18.81
2022-10-05T11:15:29.025Z,18.71
2022-10-05T11:18:15.797Z,18.63
2022-10-05T11:21:20.625Z,18.61
2022-10-05T11:24:38.388Z,18.57
2022-10-05T11:27:37.147Z,18.47
2022-10-05T11:30:50.473Z,18.45
2022-10-05T11:33:48.519Z,18.57
2022-10-05T11:36:42.372Z,18.68
2022-10-05T11:39:41.025Z,18.63
2022-10-05T11:42:42.785Z,18.56
2022-10-05T11:45:25.070Z,18.51
2022-10-05T11:48:28.954Z,18.47
2022-10-05T11:51:34.278Z,18.44
2022-10-05T11:54:17.098Z,18.35
2022-10-05T11:56:54.703Z,18.25
2022-10-05T11:59:34.518Z,18.18
2022-10-05T12:02:15.944Z,18.14
2022-10-05T12:04:52.176Z,18.12
2022-10-05T12:07:31.103Z,18.06
2022-10-05T12:10:16.465Z,18.03
2022-10-05T12:12:58.821Z,17.99
2022-10-05T12:15:34.672Z,17.93
2022-10-05T12:18:12.911Z,17.88
2022-10-05T12:20:49.698Z,17.82
2022-10-05T12:23:24.331Z,17.75
2022-10-05T12:26:01.039Z,17.70
2022-10-05T12:28:36.319Z,17.64
2022-10-05T12:31:18.833Z,17.58
2022-10-05T12:33:56.643Z,17.52
2022-10-05T12:36:59.202Z,17.50
2022-10-05T12:39:31.133Z,17.47
2022-10-05T12:42:12.120Z,17.45
2022-10-05T12:45:03.715Z,17.44
2022-10-05T12:47:44.524Z,17.43
2022-10-05T12:50:26.633Z,17.41
2022-10-05T12:53:07.951Z,17.39
2022-10-05T12:55:47.586Z,17.41
2022-10-05T12:58:27.317Z,17.44
2022-10-05T13:01:06.048Z,17.46
2022-10-05T13:03:39.108Z,17.40
2022-10-05T13:06:17.567Z,17.34
2022-10-05T13:08:55.835Z,17.28
2022-10-05T13:11:35.846Z,17.26
2022-10-05T13:14:15.834Z,17.21
2022-10-05T13:16:54.748Z,17.16
2022-10-05T13:19:34.303Z,17.14
2022-10-05T13:22:18.266Z,17.13
2022-10-05T13:24:59.459Z,17.08
2022-10-05T13:27:34.817Z,17.09
2022-10-05T13:30:13.369Z,17.07
2022-10-05T13:32:45.761Z,17.07
2022-10-05T13:35:37.804Z,17.05
2022-10-05T13:38:20.686Z,16.98
2022-10-05T13:40:58.476Z,16.91
2022-10-05T13:46:22.913Z,16.86
2022-10-05T13:49:03.426Z,16.87
2022-10-05T13:51:45.614Z,16.84
2022-10-05T13:54:23.053Z,16.77
2022-10-05T13:56:58.923Z,16.71
2022-10-05T13:59:38.106Z,16.64
2022-10-05T14:02:10.816Z,16.57
2022-10-05T14:04:50.941Z,16.50
2022-10-05T14:07:30.033Z,16.46
2022-10-05T14:10:00.859Z,16.42
2022-10-05T14:12:37.707Z,16.39
2022-10-05T14:15:23.027Z,16.34
2022-10-05T14:17:54.182Z,16.29
2022-10-05T14:20:25.616Z,16.24
2022-10-05T14:22:59.648Z,16.20
2022-10-05T14:25:29.847Z,16.16
2022-10-05T14:28:20.509Z,16.14
2022-10-05T14:30:59.313Z,16.12
2022-10-05T14:33:33.573Z,16.08
2022-10-05T14:36:02.779Z,16.04
2022-10-05T14:38:49.767Z,16.00
2022-10-05T14:41:20.471Z,16.00
2022-10-05T14:43:55.264Z,15.98
2022-10-05T14:46:29.310Z,15.94
2022-10-05T14:49:13.234Z,15.92
2022-10-05T14:51:55.983Z,15.89
2022-10-05T14:54:45.134Z,15.85
2022-10-05T14:57:24.796Z,15.83
2022-10-05T15:00:03.961Z,15.81
2022-10-05T15:02:53.623Z,15.78
2022-10-05T15:05:30.804Z,15.75
2022-10-05T15:08:12.345Z,15.71
2022-10-05T15:11:01.817Z,15.68
2022-10-05T15:13:36.236Z,15.65
2022-10-05T15:16:14.395Z,15.60
2022-10-05T15:18:48.592Z,15.57
2022-10-05T15:21:34.628Z,15.51
2022-10-05T15:24:09.198Z,15.48
2022-10-05T15:26:50.019Z,15.45
2022-10-05T15:29:44.318Z,15.43
2022-10-05T15:32:28.252Z,15.40
2022-10-05T15:35:26.227Z,15.37
2022-10-05T15:38:01.175Z,15.33
2022-10-05T15:40:39.716Z,15.30
2022-10-05T15:43:15.483Z,15.27
2022-10-05T15:45:55.969Z,15.24
2022-10-05T15:48:36.132Z,15.21
2022-10-05T15:51:16.096Z,15.17
2022-10-05T15:54:14.599Z,15.15
2022-10-05T15:56:50.694Z,15.12
2022-10-05T15:59:26.706Z,15.10
2022-10-05T16:02:00.966Z,15.07
2022-10-05T16:04:44.805Z,15.04
2022-10-05T16:07:38.377Z,15.02
2022-10-05T16:10:15.990Z,14.98
2022-10-05T16:12:57.008Z,14.93
2022-10-05T16:15:33.246Z,14.92
2022-10-05T16:18:22.903Z,14.90
2022-10-05T16:20:59.462Z,14.87
2022-10-05T16:23:38.484Z,14.85
2022-10-05T16:26:23.347Z,14.81
2022-10-05T16:29:04.172Z,14.79
2022-10-05T16:31:40.415Z,14.76
2022-10-05T16:34:23.233Z,14.73
2022-10-05T16:37:03.304Z,14.71
2022-10-05T16:39:47.969Z,14.68
2022-10-05T16:42:29.154Z,14.65
2022-10-05T16:45:07.926Z,14.62
2022-10-05T16:47:46.908Z,14.59
2022-10-05T16:50:23.323Z,14.57
2022-10-05T16:52:58.973Z,14.55
2022-10-05T16:55:34.708Z,14.54
2022-10-05T16:58:11.690Z,14.51
2022-10-05T17:00:51.439Z,14.49
2022-10-05T17:03:34.085Z,14.46
2022-10-05T17:06:39.417Z,14.43
2022-10-05T17:09:32.723Z,14.42
2022-10-05T17:12:21.403Z,14.39
2022-10-05T17:15:09.637Z,14.38
2022-10-05T17:18:03.085Z,14.37
2022-10-05T17:20:44.395Z,14.36
2022-10-05T17:23:31.484Z,14.34
2022-10-05T17:26:16.190Z,14.32
2022-10-05T17:29:00.722Z,14.31
2022-10-05T17:31:31.483Z,14.30
2022-10-05T17:34:25.677Z,14.28
2022-10-05T17:36:59.222Z,14.26
2022-10-05T17:39:50.305Z,14.26
2022-10-05T17:42:47.677Z,14.24
2022-10-05T17:45:52.342Z,14.23
2022-10-05T17:48:42.417Z,14.21
2022-10-05T17:51:57.513Z,14.19
2022-10-05T17:54:48.137Z,14.17
2022-10-05T17:57:21.727Z,14.15
2022-10-05T18:00:00.414Z,14.13
2022-10-05T18:02:50.155Z,14.13
2022-10-05T18:05:27.245Z,14.11
2022-10-05T18:08:36.610Z,14.09
2022-10-05T18:11:16.496Z,14.06
2022-10-05T18:13:49.398Z,14.04
2022-10-05T18:16:50.462Z,14.03
2022-10-05T18:19:22.827Z,14.00
2022-10-05T18:22:26.926Z,13.99
2022-10-05T18:25:05.298Z,13.97
2022-10-05T18:28:00.210Z,13.95
2022-10-05T18:30:38.676Z,13.95
2022-10-05T18:33:31.897Z,13.95
2022-10-05T18:36:18.506Z,13.95
2022-10-05T18:38:55.916Z,13.95
2022-10-05T18:41:36.718Z,13.95
2022-10-05T18:44:23.556Z,13.95
2022-10-05T18:47:00.701Z,13.98
2022-10-05T18:49:42.401Z,13.97
2022-10-05T18:52:20.065Z,13.99
2022-10-05T18:54:59.419Z,14.00
2022-10-05T18:57:44.385Z,14.01
2022-10-05T19:00:17.424Z,14.01
2022-10-05T19:02:51.353Z,14.01
2022-10-05T19:05:47.876Z,14.01
2022-10-05T19:08:32.217Z,14.00
2022-10-05T19:11:13.378Z,13.99
2022-10-05T19:13:50.422Z,13.97
2022-10-05T19:16:37.286Z,13.96
2022-10-05T19:19:33.101Z,13.95
2022-10-05T19:22:10.005Z,13.94
2022-10-05T19:24:59.657Z,13.92
2022-10-05T19:27:39.468Z,13.91
2022-10-05T19:30:20.438Z,13.90
2022-10-05T19:33:18.204Z,13.89
2022-10-05T19:35:57.727Z,13.88
2022-10-05T19:38:35.824Z,13.86
2022-10-05T19:41:14.132Z,13.86
2022-10-05T19:44:08.031Z,13.85
2022-10-05T19:46:53.305Z,13.84
2022-10-05T19:49:58.797Z,13.82
2022-10-05T19:52:37.205Z,13.81
2022-10-05T19:55:14.778Z,13.79
2022-10-05T19:57:51.994Z,13.77
2022-10-05T20:00:26.462Z,13.74
2022-10-05T20:03:11.322Z,13.72
2022-10-05T20:05:40.503Z,13.70
2022-10-05T20:08:16.903Z,13.68
2022-10-05T20:11:03.369Z,13.67
2022-10-05T20:13:34.536Z,13.63
2022-10-05T20:16:46.750Z,13.62
2022-10-05T20:19:53.557Z,13.60
2022-10-05T20:22:32.673Z,13.59
2022-10-05T20:25:32.854Z,13.57
2022-10-05T20:28:02.471Z,13.56
2022-10-05T20:30:33.361Z,13.54
2022-10-05T20:33:04.120Z,13.54
2022-10-05T20:35:33.056Z,13.52
2022-10-05T20:38:13.895Z,13.50
2022-10-05T20:40:42.668Z,13.48
2022-10-05T20:43:11.887Z,13.46
2022-10-05T20:45:42.769Z,13.44
2022-10-05T20:48:13.581Z,13.42
2022-10-05T20:50:43.123Z,13.40
2022-10-05T20:53:12.616Z,13.38
2022-10-05T20:55:42.529Z,13.36
2022-10-05T20:58:11.346Z,13.35
2022-10-05T21:01:00.770Z,13.33
2022-10-05T21:03:30.298Z,13.29
2022-10-05T21:05:59.211Z,13.27
2022-10-05T21:08:28.471Z,13.25
2022-10-05T21:10:57.513Z,13.23
2022-10-05T21:13:26.561Z,13.21
2022-10-05T21:15:56.012Z,13.20
2022-10-05T21:18:25.174Z,13.19
2022-10-05T21:20:57.555Z,13.17
2022-10-05T21:23:28.979Z,13.16
2022-10-05T21:25:57.848Z,13.14
2022-10-05T21:28:27.251Z,13.11
2022-10-05T21:30:56.670Z,13.09
2022-10-05T21:33:26.127Z,13.07
2022-10-05T21:35:55.202Z,13.05
2022-10-05T21:38:24.312Z,13.03
2022-10-05T21:41:08.567Z,13.00
2022-10-05T21:43:37.350Z,12.98
2022-10-05T21:46:07.349Z,12.96
2022-10-05T21:48:37.796Z,12.92
2022-10-05T21:51:09.461Z,12.90
2022-10-05T21:53:42.257Z,12.87
2022-10-05T21:56:14.408Z,12.86
2022-10-05T21:58:46.444Z,12.82
2022-10-05T22:01:18.862Z,12.80
2022-10-05T22:03:51.315Z,12.78
2022-10-05T22:06:20.187Z,12.77
2022-10-05T22:08:49.087Z,12.74
2022-10-05T22:11:18.590Z,12.72
2022-10-05T22:13:49.395Z,12.70
2022-10-05T22:16:20.581Z,12.67
2022-10-05T22:18:49.593Z,12.65
2022-10-05T22:21:20.490Z,12.63
2022-10-05T22:23:49.322Z,12.60
2022-10-05T22:26:21.417Z,12.59
2022-10-05T22:28:54.906Z,12.56
2022-10-05T22:31:23.963Z,12.53
2022-10-05T22:33:53.071Z,12.51
2022-10-05T22:36:22.137Z,12.49
2022-10-05T22:38:51.327Z,12.46
2022-10-05T22:41:20.490Z,12.44
2022-10-05T22:43:50.347Z,12.42
2022-10-05T22:46:19.290Z,12.39
2022-10-05T22:48:48.163Z,12.37
2022-10-05T22:51:17.646Z,12.36
2022-10-05T22:53:46.567Z,12.34
2022-10-05T22:56:15.603Z,12.33
2022-10-05T22:58:45.273Z,12.31
2022-10-05T23:01:18.113Z,12.29
2022-10-05T23:03:47.228Z,12.27
2022-10-05T23:06:18.087Z,12.25
2022-10-05T23:08:47.401Z,12.22
2022-10-05T23:11:18.729Z,12.19
2022-10-05T23:13:51.787Z,12.17
2022-10-05T23:16:22.629Z,12.15
2022-10-05T23:18:53.246Z,12.12
2022-10-05T23:21:23.954Z,12.09
2022-10-05T23:23:52.971Z,12.06
2022-10-05T23:26:23.575Z,12.04
2022-10-05T23:28:52.795Z,12.02
2022-10-05T23:31:24.694Z,12.00
2022-10-05T23:33:53.470Z,11.98
2022-10-05T23:36:24.503Z,11.97
2022-10-05T23:38:54.512Z,11.96
2022-10-05T23:41:24.846Z,11.95
2022-10-05T23:43:54.612Z,11.94
2022-10-05T23:46:23.400Z,11.93
2022-10-05T23:48:53.038Z,11.92
2022-10-05T23:51:21.912Z,11.91
2022-10-05T23:53:51.482Z,11.91
2022-10-05T23:56:20.715Z,11.90
2022-10-05T23:58:49.374Z,11.90
